Jefferson, Maryland
Current Conditions -  °F | °C
As of 2:45 PM on Friday 19 Dec 2014 (Local Time) from KFDK Reporting Station
Broken Clouds Broken Clouds  
Wind Chill:   Ceiling: 3900
Heat Index:   Visibility: 10mi
Dew Point: -7°   Wind: 9mph
Humidity: 42%   Direction: 320°NW
Pressure: 30.17"   Gusts: NA
Location:  39.36°N, 77.53°W
Report Text: KFDK 191945Z 32008KT 10SM BKN039 05/M07 A3017
Loading
Personal Weather Stations






























Interactive Weather Map New forecast layout! Learn more

10-Day Weather Forecast

Advertisements
Track Severe Weather on mobile